Irvine, KY

8:49 AM EDT on August 22, 2014 (GMT -0400)
Carroll | Change Station
CLOSE
Current Station
Airport
Location: Jackson,
Elevation: 1381 ft
Nearby Weather Stations
Active Advisory: Flood Advisory Active Notice: Local Storm Report

Elev 1381 ft 37.59 °N, 83.31 °W | Updated 56 minutes ago

Mostly Cloudy
Mostly Cloudy
73 °F
Feels Like 73 °F
N
0
Wind Variable Wind from North

Today
High -- | Low -- °F
--% Chance of Precip.
Yesterday
High -- | Low -- °F
Precip. -- in
6:57 AM 8:19 PM
Waning Crescent, 8% visible
Pressure 30.06 in
Visibility 10.0 miles
Clouds Mostly Cloudy 3500 ft
Dew Point 70 °F
Humidity 90%
Rainfall 0.00 in
Snow Depth Not available.
UV 0 out of 12
Pollen 7.80 out of 12
Air Quality Not available.
Flu Activity Not available.
METAR KJKL 221153Z AUTO 00000KT 10SM BKN035 23/21 A3010 RMK AO2 SLP179 70081 T02280211 10228 20217 53012

More Conditions Fewer Conditions

Pressure 30.06 in
Visibility 10.0 miles
Clouds Mostly Cloudy 3500 ft
Dew Point 70 °F
Humidity 90%
Rainfall 0.00 in
Snow Depth Not available.
UV 0 out of 12
Pollen 7.80 out of 12
Air Quality Not available.
Flu Activity Not available.
METAR KJKL 221153Z AUTO 00000KT 10SM BKN035 23/21 A3010 RMK AO2 SLP179 70081 T02280211 10228 20217 53012

More Conditions Fewer Conditions

10-Day Weather Forecast

Almanac

Astronomy

Aug. 22, 2014 Rise Set
Actual Time 6:57 AM EDT 8:19 PM EDT
Civil Twilight 6:30 AM EDT 8:46 PM EDT
Nautical Twilight 5:57 AM EDT 9:19 PM EDT
Astronomical Twilight 5:22 AM EDT 9:53 PM EDT
Moon 4:20 AM EDT 6:26 PM EDT
Length of Visible Light 14h 16m
Length of Day
13h 21m
Tomorrow will be 2m 14s shorter.
Waning Crescent, 8% of the Moon is Illuminated
Today
Waning Crescent
Aug 25
New
Sep 2
First Quarter
Sep 8
Full
Sep 15
Last Quarter

Today's Extremes

State Highs State Lows

Community

WunderPhotos

Upload Photos

1,746,158 photos uploaded!

WunderBlogs® & News

Nearby

Snow Depth

Station Depth Elevation
No new snow has been reported.

Earthquake Activity

City Distance Mag. Time & Date
No recent earthquake activity has been reported nearby.
Minimum magnitude displayed is 2.5.

Coastal Water Temperatures

Place Temperature
No Stations Reporting

Nearby Weather Stations